Time;durP1;ratioP1;P1;durP2;ratioP2;P2;SDS_P1;SDS_P2;PMS_P1;PMS_P2;Temp;Humidity;BMP_temperature;BMP_pressure;BME280_temperature;BME280_humidity;BME280_pressure;Samples;Min_cycle;Max_cycle;Signal;HPM_P1;HPM_P2
2023/07/20 00:01:44;;;;;;;4.80;3.30;;;20.70;72.40;;;;;;5111954;28;20163;-69
2023/07/20 00:04:11;;;;;;;4.75;2.90;;;20.70;72.20;;;;;;5116420;28;20121;-69
2023/07/20 00:06:40;;;;;;;5.57;2.78;;;20.70;71.90;;;;;;5114063;27;20371;-69
2023/07/20 00:09:10;;;;;;;4.30;2.67;;;20.70;71.70;;;;;;5114497;28;20125;-68
2023/07/20 00:11:38;;;;;;;4.80;2.70;;;20.70;71.70;;;;;;5111880;28;20067;-70
2023/07/20 00:14:07;;;;;;;5.65;2.65;;;20.70;71.70;;;;;;5083798;28;20533;-70
2023/07/20 00:16:34;;;;;;;7.22;2.90;;;20.60;71.80;;;;;;5119205;27;20042;-69
2023/07/20 00:19:10;;;;;;;4.57;2.45;;;20.60;71.50;;;;;;5119803;27;20047;-70
2023/07/20 00:21:40;;;;;;;3.13;1.85;;;20.60;71.30;;;;;;5119371;27;21121;-69
2023/07/20 00:24:07;;;;;;;3.42;1.90;;;20.60;71.10;;;;;;5100818;27;20058;-69
2023/07/20 00:26:34;;;;;;;5.43;2.60;;;20.60;71.00;;;;;;5119420;27;20044;-69
2023/07/20 00:29:01;;;;;;;3.88;2.10;;;20.60;71.10;;;;;;5115033;27;20052;-69
2023/07/20 00:31:29;;;;;;;3.85;2.20;;;20.50;71.30;;;;;;5096847;27;20054;-69
2023/07/20 00:33:57;;;;;;;4.90;2.13;;;20.50;71.30;;;;;;5113594;27;20047;-69
2023/07/20 00:36:25;;;;;;;5.22;2.28;;;20.40;71.40;;;;;;5102449;27;20991;-69
2023/07/20 00:38:52;;;;;;;4.47;2.10;;;20.40;71.70;;;;;;5119671;27;20483;-69
2023/07/20 00:41:20;;;;;;;3.45;2.30;;;20.40;71.70;;;;;;5093833;27;20049;-68
2023/07/20 00:43:47;;;;;;;4.13;2.28;;;20.40;71.90;;;;;;5099770;27;20070;-68
2023/07/20 00:46:14;;;;;;;3.95;2.47;;;20.40;72.20;;;;;;5109006;27;20492;-67
2023/07/20 00:48:43;;;;;;;4.50;2.60;;;20.30;72.60;;;;;;5120410;27;20134;-69
2023/07/20 00:51:11;;;;;;;4.82;2.78;;;20.30;71.90;;;;;;5117087;27;20043;-68
2023/07/20 00:53:40;;;;;;;3.40;2.17;;;20.30;71.40;;;;;;5116022;27;20135;-69
2023/07/20 00:56:08;;;;;;;4.43;2.20;;;20.20;71.20;;;;;;5092168;27;20054;-69
2023/07/20 00:58:36;;;;;;;4.35;2.20;;;20.10;71.00;;;;;;5119803;27;20059;-68
2023/07/20 01:01:03;;;;;;;3.47;2.17;;;20.10;70.90;;;;;;5115728;27;20046;-69
2023/07/20 01:03:30;;;;;;;5.20;2.17;;;20.10;70.80;;;;;;5114726;27;20516;-69
2023/07/20 01:06:08;;;;;;;4.40;2.33;;;20.00;70.70;;;;;;5116380;27;20089;-68
2023/07/20 01:08:48;;;;;;;3.58;1.73;;;20.00;71.00;;;;;;5118971;27;20043;-67
2023/07/20 01:11:19;;;;;;;3.90;1.83;;;19.90;71.40;;;;;;5095567;27;20035;-67
2023/07/20 01:13:47;;;;;;;4.78;1.98;;;19.90;71.50;;;;;;5119884;27;20051;-69
2023/07/20 01:16:14;;;;;;;3.40;1.90;;;19.80;71.80;;;;;;5119333;27;20076;-68
2023/07/20 01:18:41;;;;;;;2.65;1.70;;;19.80;71.80;;;;;;5091963;28;20052;-68
2023/07/20 01:21:14;;;;;;;4.07;1.90;;;19.90;71.70;;;;;;5119023;27;20087;-68
2023/07/20 01:24:08;;;;;;;3.78;2.03;;;19.70;72.10;;;;;;5115541;27;20391;-68
2023/07/20 01:26:57;;;;;;;3.90;1.50;;;19.70;72.30;;;;;;5071345;27;20043;-68
2023/07/20 01:29:41;;;;;;;3.97;1.52;;;19.60;72.40;;;;;;5120582;27;20051;-68
2023/07/20 01:32:10;;;;;;;3.72;1.77;;;19.60;72.40;;;;;;5119348;27;20071;-67
2023/07/20 01:34:39;;;;;;;3.63;2.07;;;19.60;72.50;;;;;;5099813;27;20492;-68
2023/07/20 01:37:07;;;;;;;4.72;1.60;;;19.60;72.60;;;;;;5120466;27;20453;-68
2023/07/20 01:39:35;;;;;;;2.85;1.70;;;19.50;72.70;;;;;;5120714;27;20126;-68
2023/07/20 01:42:02;;;;;;;3.25;1.80;;;19.60;72.60;;;;;;5091199;27;20050;-67
2023/07/20 01:44:30;;;;;;;4.63;1.77;;;19.50;72.60;;;;;;5094166;27;20047;-67
2023/07/20 01:46:56;;;;;;;3.42;1.75;;;19.60;72.40;;;;;;5114170;27;20039;-68
2023/07/20 01:49:25;;;;;;;5.03;1.85;;;19.60;72.30;;;;;;5098415;27;20099;-69
2023/07/20 01:51:52;;;;;;;4.20;2.13;;;19.50;72.40;;;;;;5118722;27;20043;-68
2023/07/20 01:54:19;;;;;;;2.97;1.65;;;19.50;72.30;;;;;;5115743;27;20051;-67
2023/07/20 01:56:46;;;;;;;3.25;1.77;;;19.40;72.10;;;;;;5119505;27;20061;-68
2023/07/20 01:59:13;;;;;;;4.32;2.00;;;19.30;72.20;;;;;;5103675;27;20112;-68
2023/07/20 02:01:40;;;;;;;3.92;1.88;;;19.30;72.10;;;;;;5097326;27;20065;-68
2023/07/20 02:04:07;;;;;;;3.78;1.90;;;19.30;72.10;;;;;;5115188;27;20046;-68
2023/07/20 02:06:36;;;;;;;3.70;2.22;;;19.20;72.30;;;;;;5115721;27;20035;-68
2023/07/20 02:09:03;;;;;;;5.10;1.95;;;19.20;72.30;;;;;;5113624;27;20047;-69
2023/07/20 02:11:32;;;;;;;4.85;1.90;;;19.10;72.40;;;;;;5115376;27;20040;-68
2023/07/20 02:13:59;;;;;;;4.80;1.90;;;19.20;72.30;;;;;;5119169;27;20096;-68
2023/07/20 02:16:26;;;;;;;2.53;1.60;;;19.10;72.40;;;;;;5118577;27;20073;-68
2023/07/20 02:18:56;;;;;;;3.67;1.80;;;19.10;72.50;;;;;;5117029;27;20040;-68
2023/07/20 02:21:23;;;;;;;2.70;1.60;;;19.10;72.40;;;;;;5118435;27;20050;-68
2023/07/20 02:23:52;;;;;;;3.45;1.60;;;19.10;72.50;;;;;;5118166;27;20051;-68
2023/07/20 02:26:18;;;;;;;3.67;1.90;;;19.00;72.60;;;;;;5119196;27;20043;-68
2023/07/20 02:28:45;;;;;;;3.80;1.70;;;18.90;72.70;;;;;;5116173;27;20090;-68
2023/07/20 02:31:13;;;;;;;3.88;1.60;;;18.90;72.70;;;;;;5098242;27;20043;-68
2023/07/20 02:33:40;;;;;;;4.18;1.70;;;18.90;72.60;;;;;;5101540;27;20043;-68
2023/07/20 02:36:07;;;;;;;3.20;1.70;;;18.90;72.60;;;;;;5115609;27;20123;-67
2023/07/20 02:38:34;;;;;;;2.97;1.73;;;19.00;72.50;;;;;;5120482;27;20048;-69
2023/07/20 02:41:02;;;;;;;3.45;1.90;;;18.90;72.50;;;;;;5113379;27;20043;-69
2023/07/20 02:43:29;;;;;;;3.67;1.83;;;18.80;72.70;;;;;;5098542;27;20039;-69
2023/07/20 02:45:56;;;;;;;1.88;1.35;;;18.80;72.80;;;;;;5117954;27;20054;-69
2023/07/20 02:48:23;;;;;;;3.42;1.85;;;18.80;72.80;;;;;;5099001;27;20074;-69
2023/07/20 02:50:50;;;;;;;3.55;1.70;;;18.70;72.90;;;;;;5116839;27;20047;-68
2023/07/20 02:53:16;;;;;;;2.97;1.70;;;18.70;73.00;;;;;;5098581;27;20077;-68
2023/07/20 02:55:43;;;;;;;4.93;2.17;;;18.60;73.10;;;;;;5099707;27;20046;-67
2023/07/20 02:58:11;;;;;;;3.00;1.63;;;18.60;73.20;;;;;;5114407;27;20047;-68
2023/07/20 03:00:38;;;;;;;4.47;2.05;;;18.60;73.30;;;;;;5096346;27;20089;-69
2023/07/20 03:03:09;;;;;;;5.43;1.77;;;18.60;73.30;;;;;;5116838;27;20066;-70
2023/07/20 03:05:37;;;;;;;5.03;1.55;;;18.60;73.40;;;;;;5099267;27;20044;-69
2023/07/20 03:08:06;;;;;;;3.67;1.63;;;18.50;73.40;;;;;;5118093;27;20410;-68
2023/07/20 03:10:33;;;;;;;3.38;1.60;;;18.50;73.40;;;;;;5114175;27;20614;-71
2023/07/20 03:13:00;;;;;;;2.72;1.65;;;18.50;73.40;;;;;;5115843;27;20144;-68
2023/07/20 03:15:29;;;;;;;4.88;1.77;;;18.60;73.20;;;;;;5093499;27;20055;-67
2023/07/20 03:17:56;;;;;;;5.13;1.75;;;18.60;72.90;;;;;;5116595;27;20120;-69
2023/07/20 03:20:23;;;;;;;4.25;1.75;;;18.60;72.70;;;;;;5090854;27;20115;-68
2023/07/20 03:22:49;;;;;;;2.97;1.75;;;18.60;72.90;;;;;;5116858;27;20493;-69
2023/07/20 03:25:17;;;;;;;5.25;2.03;;;18.50;72.90;;;;;;5098864;27;20519;-69
2023/07/20 03:27:45;;;;;;;4.05;2.05;;;18.50;72.90;;;;;;5116396;27;20440;-68
2023/07/20 03:30:12;;;;;;;3.83;1.92;;;18.50;72.90;;;;;;5116410;27;20127;-68
2023/07/20 03:32:41;;;;;;;3.45;2.10;;;18.60;72.90;;;;;;5114804;27;20051;-68
2023/07/20 03:35:08;;;;;;;3.95;1.75;;;18.50;73.00;;;;;;5116269;27;20043;-69
2023/07/20 03:37:36;;;;;;;3.38;1.88;;;18.40;73.10;;;;;;5092320;27;20039;-69
2023/07/20 03:40:04;;;;;;;3.83;1.98;;;18.40;73.10;;;;;;5099696;27;20070;-69
2023/07/20 03:42:31;;;;;;;3.90;2.05;;;18.50;72.90;;;;;;5118335;27;20515;-68
2023/07/20 03:44:58;;;;;;;4.25;1.98;;;18.50;73.00;;;;;;5115942;27;20050;-69
2023/07/20 03:47:26;;;;;;;3.45;1.90;;;18.40;73.00;;;;;;5095968;28;20043;-68
2023/07/20 03:49:54;;;;;;;4.65;1.83;;;18.40;73.10;;;;;;5095847;27;20036;-69
2023/07/20 03:52:21;;;;;;;3.67;2.03;;;18.40;73.00;;;;;;5116598;27;20043;-68
2023/07/20 03:54:48;;;;;;;4.90;2.00;;;18.40;73.10;;;;;;5097820;28;20962;-69
2023/07/20 03:57:15;;;;;;;4.15;2.28;;;18.40;73.10;;;;;;5116271;28;20953;-68
2023/07/20 03:59:46;;;;;;;5.60;2.28;;;18.30;73.30;;;;;;5117267;28;20399;-68
2023/07/20 04:02:13;;;;;;;3.60;2.10;;;18.40;73.40;;;;;;5114494;28;20127;-68
2023/07/20 04:04:43;;;;;;;4.63;2.50;;;18.40;73.40;;;;;;5097989;28;20051;-68
2023/07/20 04:07:11;;;;;;;6.07;2.58;;;18.40;73.30;;;;;;5108023;28;20057;-68
2023/07/20 04:09:38;;;;;;;5.18;2.35;;;18.50;73.00;;;;;;5097051;28;20079;-69
2023/07/20 04:12:06;;;;;;;4.55;2.28;;;18.40;73.30;;;;;;5113955;28;20047;-68
2023/07/20 04:14:33;;;;;;;5.38;3.03;;;18.40;73.40;;;;;;5113981;28;20044;-68
2023/07/20 04:17:00;;;;;;;4.40;2.47;;;18.40;73.40;;;;;;5115264;28;20123;-68
2023/07/20 04:19:27;;;;;;;5.72;2.75;;;18.40;73.50;;;;;;5114373;28;20046;-68
2023/07/20 04:21:54;;;;;;;4.00;2.42;;;18.30;73.60;;;;;;5112834;28;20059;-69
2023/07/20 04:24:22;;;;;;;3.80;2.35;;;18.30;73.70;;;;;;5096805;28;20040;-69
2023/07/20 04:26:49;;;;;;;4.50;2.53;;;18.40;73.60;;;;;;5096406;28;20142;-69
2023/07/20 04:29:16;;;;;;;4.20;2.10;;;18.40;73.60;;;;;;5113274;28;20046;-68
2023/07/20 04:31:44;;;;;;;4.85;2.30;;;18.40;73.70;;;;;;5108825;28;20066;-70
2023/07/20 04:34:12;;;;;;;3.25;1.88;;;18.40;73.60;;;;;;5114621;28;20520;-69
2023/07/20 04:36:39;;;;;;;3.92;1.92;;;18.40;73.70;;;;;;5098394;28;20071;-69
2023/07/20 04:39:08;;;;;;;3.72;2.08;;;18.40;73.70;;;;;;5094377;28;20055;-69
2023/07/20 04:41:39;;;;;;;4.43;2.17;;;18.30;73.80;;;;;;5098164;28;20031;-66
2023/07/20 04:44:06;;;;;;;5.05;1.95;;;18.30;73.80;;;;;;5115926;28;20058;-69
2023/07/20 04:46:33;;;;;;;4.47;2.53;;;18.30;73.80;;;;;;5092266;28;20147;-69
2023/07/20 04:49:02;;;;;;;5.53;2.42;;;18.30;73.80;;;;;;5097698;28;20073;-68
2023/07/20 04:51:31;;;;;;;4.25;1.92;;;18.30;74.00;;;;;;5097886;28;20092;-69
2023/07/20 04:53:59;;;;;;;4.65;2.20;;;18.30;74.20;;;;;;5096375;28;20130;-68
2023/07/20 04:56:28;;;;;;;5.85;2.30;;;18.40;74.20;;;;;;5112499;28;20051;-69
2023/07/20 04:58:58;;;;;;;7.03;2.58;;;18.40;74.20;;;;;;5098336;28;20417;-69
2023/07/20 05:01:26;;;;;;;5.57;2.58;;;18.30;74.20;;;;;;5116167;27;20040;-68
2023/07/20 05:03:53;;;;;;;5.82;2.40;;;18.40;74.30;;;;;;5118430;27;20047;-69
2023/07/20 05:06:20;;;;;;;5.93;2.63;;;18.40;74.10;;;;;;5099287;27;20050;-68
2023/07/20 05:08:47;;;;;;;4.47;2.42;;;18.40;74.20;;;;;;5100550;27;20035;-69
2023/07/20 05:11:14;;;;;;;4.38;2.30;;;18.40;74.20;;;;;;5118957;27;20127;-68
2023/07/20 05:13:41;;;;;;;5.68;2.60;;;18.40;74.20;;;;;;5100782;27;20066;-69
2023/07/20 05:16:10;;;;;;;5.43;2.28;;;18.40;74.20;;;;;;5114518;27;20100;-68
2023/07/20 05:18:37;;;;;;;4.40;2.17;;;18.40;74.50;;;;;;5100015;27;20050;-68
2023/07/20 05:21:04;;;;;;;4.20;2.17;;;18.40;74.40;;;;;;5111852;27;20472;-69
2023/07/20 05:23:31;;;;;;;5.82;2.58;;;18.50;74.20;;;;;;5101349;27;20043;-67
2023/07/20 05:25:59;;;;;;;4.57;2.58;;;18.50;74.00;;;;;;5096664;27;20067;-68
2023/07/20 05:28:27;;;;;;;6.50;2.92;;;18.60;73.80;;;;;;5119333;27;20506;-69
2023/07/20 05:30:54;;;;;;;7.10;2.83;;;18.70;73.40;;;;;;5116007;27;20058;-68
2023/07/20 05:33:22;;;;;;;3.88;2.35;;;18.80;73.60;;;;;;5114687;27;20817;-69
2023/07/20 05:35:49;;;;;;;7.32;2.53;;;18.90;73.50;;;;;;5116015;27;20075;-69
2023/07/20 05:38:16;;;;;;;7.07;2.72;;;19.00;73.10;;;;;;5114913;27;20100;-68
2023/07/20 05:40:45;;;;;;;5.20;2.95;;;19.00;72.70;;;;;;5117650;27;20055;-68
2023/07/20 05:43:12;;;;;;;7.00;2.70;;;19.10;72.10;;;;;;5118595;27;20501;-68
2023/07/20 05:45:42;;;;;;;4.45;2.60;;;19.10;71.70;;;;;;5119607;27;20042;-69
2023/07/20 05:48:11;;;;;;;;;;;19.10;71.30;;;;;;5115975;27;20047;-69
2023/07/20 05:50:39;;;;;;;6.15;2.33;;;19.10;71.30;;;;;;5112871;27;19923;-68
2023/07/20 05:53:06;;;;;;;4.50;2.20;;;19.10;70.60;;;;;;5116345;27;20060;-68
2023/07/20 05:55:33;;;;;;;4.80;2.47;;;19.20;70.40;;;;;;5117627;27;20108;-68
2023/07/20 05:58:00;;;;;;;6.32;2.60;;;19.20;70.30;;;;;;5117607;27;20047;-68
2023/07/20 06:00:27;;;;;;;4.65;2.55;;;19.30;69.90;;;;;;5115046;27;20082;-69
2023/07/20 06:02:54;;;;;;;5.47;2.58;;;19.30;69.70;;;;;;5119151;27;20134;-69
2023/07/20 06:05:23;;;;;;;5.80;2.70;;;19.30;69.80;;;;;;5113180;27;20059;-69
2023/07/20 06:07:51;;;;;;;6.05;3.25;;;19.30;69.80;;;;;;5116958;27;20047;-68
2023/07/20 06:10:27;;;;;;;6.25;2.42;;;19.40;69.30;;;;;;5119240;27;20490;-68
2023/07/20 06:12:55;;;;;;;4.72;2.40;;;19.50;68.80;;;;;;5116161;27;20056;-69
2023/07/20 06:15:26;;;;;;;7.75;2.83;;;19.50;68.20;;;;;;5116277;27;20544;-68
2023/07/20 06:17:54;;;;;;;8.15;2.80;;;19.60;68.70;;;;;;5119423;27;20550;-68
2023/07/20 06:20:21;;;;;;;5.18;2.50;;;19.60;68.70;;;;;;5116403;27;20040;-68
2023/07/20 06:22:48;;;;;;;5.78;2.42;;;19.70;68.50;;;;;;5117284;27;20050;-70
2023/07/20 06:25:16;;;;;;;4.75;2.45;;;19.70;68.30;;;;;;5116759;27;20039;-68
2023/07/20 06:27:44;;;;;;;5.40;2.58;;;19.70;68.00;;;;;;5119433;27;20052;-68
2023/07/20 06:30:11;;;;;;;6.15;2.80;;;19.60;68.00;;;;;;5117957;27;20453;-68
2023/07/20 06:32:39;;;;;;;6.30;2.75;;;19.60;67.70;;;;;;5116164;27;20039;-68
2023/07/20 06:35:09;;;;;;;5.20;2.65;;;19.60;67.80;;;;;;5118597;27;20043;-68
2023/07/20 06:37:36;;;;;;;6.22;2.83;;;19.70;67.90;;;;;;5117261;27;20386;-68
2023/07/20 06:40:04;;;;;;;4.90;2.60;;;19.70;67.80;;;;;;5113436;27;20051;-68
2023/07/20 06:42:32;;;;;;;5.70;2.55;;;19.90;67.60;;;;;;5118167;27;20055;-68
2023/07/20 06:44:59;;;;;;;4.85;2.47;;;19.90;67.10;;;;;;5116946;27;20055;-68
2023/07/20 06:47:26;;;;;;;6.07;2.60;;;20.00;66.90;;;;;;5116106;27;20051;-68
2023/07/20 06:49:53;;;;;;;5.57;2.50;;;20.10;66.70;;;;;;5116406;27;20054;-68
2023/07/20 06:52:20;;;;;;;7.68;2.70;;;20.10;66.50;;;;;;5116322;27;20062;-68
2023/07/20 06:54:47;;;;;;;5.03;2.30;;;20.10;66.60;;;;;;5113294;27;20043;-67
2023/07/20 06:57:13;;;;;;;4.78;2.70;;;20.20;66.40;;;;;;5114559;27;20036;-68
2023/07/20 06:59:42;;;;;;;4.28;2.40;;;20.30;65.90;;;;;;5114994;27;20051;-68
2023/07/20 07:02:09;;;;;;;6.50;2.85;;;20.30;65.60;;;;;;5115857;27;20052;-67
2023/07/20 07:04:36;;;;;;;4.63;2.75;;;20.40;65.90;;;;;;5116698;27;20042;-68
2023/07/20 07:07:03;;;;;;;6.95;2.97;;;20.40;65.60;;;;;;5117483;27;20047;-68
2023/07/20 07:09:30;;;;;;;6.68;2.92;;;20.40;65.30;;;;;;5120429;27;20043;-68
2023/07/20 07:11:57;;;;;;;5.55;2.50;;;20.40;65.20;;;;;;5120831;27;20524;-69
2023/07/20 07:14:24;;;;;;;8.35;2.55;;;20.40;65.30;;;;;;5111487;27;20039;-69
2023/07/20 07:16:52;;;;;;;5.63;2.47;;;20.50;65.20;;;;;;5112848;27;20074;-68
2023/07/20 07:19:20;;;;;;;5.38;2.60;;;20.50;65.10;;;;;;5115129;27;20036;-67
2023/07/20 07:21:47;;;;;;;5.25;2.40;;;20.60;64.90;;;;;;5119495;27;20051;-69
2023/07/20 07:24:15;;;;;;;4.90;2.53;;;20.60;64.70;;;;;;5117152;27;21014;-67
2023/07/20 07:26:42;;;;;;;7.03;2.60;;;20.70;64.50;;;;;;5115915;27;20039;-69
2023/07/20 07:29:09;;;;;;;5.45;2.50;;;20.80;64.30;;;;;;5116263;27;20039;-66
2023/07/20 07:31:36;;;;;;;4.82;2.40;;;20.80;64.00;;;;;;5118886;27;20042;-67
2023/07/20 07:34:05;;;;;;;5.78;2.45;;;20.80;63.80;;;;;;5114278;27;20047;-69
2023/07/20 07:36:31;;;;;;;3.38;2.08;;;20.90;63.80;;;;;;5115070;27;20077;-69
2023/07/20 07:38:59;;;;;;;4.35;2.22;;;20.90;63.50;;;;;;5115746;27;20058;-69
2023/07/20 07:41:26;;;;;;;4.80;2.72;;;20.90;63.50;;;;;;5115510;27;20500;-68
2023/07/20 07:43:52;;;;;;;6.10;2.50;;;20.90;63.40;;;;;;5115043;27;20050;-67
2023/07/20 07:46:19;;;;;;;5.32;2.60;;;20.80;63.50;;;;;;5112014;27;20043;-68
2023/07/20 07:48:47;;;;;;;4.50;2.67;;;20.80;63.70;;;;;;5119564;27;20043;-68
2023/07/20 07:51:15;;;;;;;7.47;2.50;;;20.90;63.60;;;;;;5113686;27;20045;-68
2023/07/20 07:53:43;;;;;;;6.40;3.22;;;21.10;63.30;;;;;;5117432;27;20043;-69
2023/07/20 07:56:10;;;;;;;5.82;2.70;;;21.20;62.90;;;;;;5115761;27;20067;-69
2023/07/20 07:58:37;;;;;;;4.65;2.83;;;21.50;62.70;;;;;;5115686;28;20031;-69
2023/07/20 08:01:04;;;;;;;5.85;2.83;;;21.60;62.10;;;;;;5108557;28;20101;-62
2023/07/20 08:03:31;;;;;;;6.00;2.80;;;21.80;62.00;;;;;;5115362;28;20051;-62
2023/07/20 08:05:59;;;;;;;6.18;3.10;;;22.10;61.30;;;;;;5110550;28;20051;-62
2023/07/20 08:08:28;;;;;;;5.05;2.63;;;22.30;60.70;;;;;;5111932;28;20116;-62
2023/07/20 08:10:55;;;;;;;6.95;2.92;;;22.40;60.20;;;;;;5114490;28;20043;-62
2023/07/20 08:13:22;;;;;;;5.30;2.78;;;22.40;59.90;;;;;;5117223;28;20120;-62
2023/07/20 08:15:51;;;;;;;5.55;2.92;;;22.50;59.50;;;;;;5117260;28;20043;-62
2023/07/20 08:18:18;;;;;;;5.95;2.50;;;22.60;59.30;;;;;;5116352;28;20120;-62
2023/07/20 08:20:46;;;;;;;4.72;2.90;;;22.60;58.90;;;;;;5117561;28;20039;-60
2023/07/20 08:23:13;;;;;;;4.32;2.80;;;22.40;59.00;;;;;;5117392;27;20051;-62
2023/07/20 08:25:43;;;;;;;7.80;2.60;;;22.20;59.40;;;;;;5118006;28;20047;-61
2023/07/20 08:28:11;;;;;;;6.03;2.47;;;22.00;59.50;;;;;;5116822;28;20067;-61
2023/07/20 08:30:43;;;;;;;5.38;2.35;;;21.90;59.80;;;;;;5118457;27;20081;-63
2023/07/20 08:33:11;;;;;;;4.88;2.55;;;21.90;59.80;;;;;;5116482;28;20092;-62
2023/07/20 08:35:38;;;;;;;5.15;2.33;;;22.20;59.60;;;;;;5117030;27;20352;-62
2023/07/20 08:38:09;;;;;;;5.88;2.47;;;22.50;58.90;;;;;;5122395;27;20478;-61
2023/07/20 08:40:42;;;;;;;4.90;2.40;;;22.80;58.20;;;;;;5119372;27;20705;-62
2023/07/20 08:43:11;;;;;;;6.07;2.95;;;23.00;57.40;;;;;;5120937;27;20146;-62
2023/07/20 08:45:39;;;;;;;7.93;4.53;;;22.90;57.20;;;;;;5119348;27;20055;-62
2023/07/20 08:48:07;;;;;;;9.48;6.55;;;22.80;56.90;;;;;;5122326;27;20165;-62
2023/07/20 08:50:35;;;;;;;10.07;7.57;;;22.90;56.90;;;;;;5119116;27;20059;-63
2023/07/20 08:53:03;;;;;;;10.40;6.65;;;22.90;56.80;;;;;;5121524;27;20039;-63
2023/07/20 08:55:31;;;;;;;7.13;4.50;;;22.80;56.60;;;;;;5121628;27;20071;-62
2023/07/20 08:58:01;;;;;;;6.53;3.50;;;22.60;56.60;;;;;;5122290;27;20054;-62
2023/07/20 09:00:29;;;;;;;5.05;2.70;;;22.40;56.90;;;;;;5116031;27;20051;-62
2023/07/20 09:02:56;;;;;;;4.65;2.58;;;22.30;57.10;;;;;;5121875;27;20048;-62
2023/07/20 09:05:25;;;;;;;4.15;1.90;;;22.30;56.70;;;;;;5116227;27;20138;-62
2023/07/20 09:07:52;;;;;;;3.67;2.25;;;22.20;56.70;;;;;;5119523;27;20050;-62
2023/07/20 09:10:21;;;;;;;4.40;2.13;;;22.60;56.60;;;;;;5117858;27;20051;-62
2023/07/20 09:12:48;;;;;;;3.97;1.83;;;23.00;56.30;;;;;;5121307;27;20134;-62
2023/07/20 09:15:17;;;;;;;4.10;1.98;;;23.30;55.70;;;;;;5119049;27;20055;-62
2023/07/20 09:17:48;;;;;;;3.88;2.03;;;23.10;55.00;;;;;;5119945;27;20051;-62
2023/07/20 09:20:16;;;;;;;3.63;1.90;;;23.00;54.80;;;;;;5118943;27;20367;-61
2023/07/20 09:22:44;;;;;;;5.20;1.77;;;22.90;54.90;;;;;;5120407;27;20210;-62
2023/07/20 09:25:14;;;;;;;3.72;1.90;;;23.10;55.10;;;;;;5119246;27;20047;-62
2023/07/20 09:27:42;;;;;;;3.78;1.30;;;23.30;54.60;;;;;;5119350;27;20592;-61
2023/07/20 09:30:13;;;;;;;3.55;1.90;;;23.70;53.80;;;;;;5117601;27;20048;-62
2023/07/20 09:32:43;;;;;;;3.47;1.70;;;23.70;53.30;;;;;;5120262;27;20054;-61
2023/07/20 09:35:15;;;;;;;3.85;1.55;;;23.60;52.90;;;;;;5119383;27;20602;-62
2023/07/20 09:37:51;;;;;;;2.95;1.33;;;23.40;53.00;;;;;;5119230;27;20117;-62
2023/07/20 09:40:19;;;;;;;3.33;1.38;;;23.40;53.10;;;;;;5119695;27;20489;-61
2023/07/20 09:42:46;;;;;;;3.17;1.70;;;23.30;53.20;;;;;;5120843;27;20432;-61
2023/07/20 09:45:14;;;;;;;3.67;1.90;;;23.50;53.10;;;;;;5117519;27;20089;-61
2023/07/20 09:47:42;;;;;;;4.22;1.70;;;23.90;52.70;;;;;;5117364;27;20096;-61
2023/07/20 09:50:12;;;;;;;4.43;1.70;;;24.10;52.30;;;;;;5118388;27;20071;-61
2023/07/20 09:52:41;;;;;;;4.57;1.90;;;24.10;52.20;;;;;;5118614;27;20398;-61
2023/07/20 09:55:09;;;;;;;3.22;1.90;;;24.10;51.90;;;;;;5116773;27;20047;-61
2023/07/20 09:57:36;;;;;;;4.00;1.75;;;24.10;52.20;;;;;;5101863;27;20070;-62
2023/07/20 10:00:12;;;;;;;4.47;1.80;;;24.10;52.20;;;;;;5117517;27;20058;-61
2023/07/20 10:02:44;;;;;;;4.10;1.63;;;24.10;52.00;;;;;;5100296;27;20134;-62
2023/07/20 10:05:13;;;;;;;3.42;1.60;;;24.10;51.50;;;;;;5118031;27;20040;-61
2023/07/20 10:07:54;;;;;;;3.30;1.73;;;24.00;51.20;;;;;;5120022;27;20054;-61
2023/07/20 10:10:21;;;;;;;3.58;1.58;;;24.10;51.20;;;;;;5120055;27;20640;-62
2023/07/20 10:12:49;;;;;;;3.58;2.10;;;24.50;51.00;;;;;;5119797;27;20042;-62
2023/07/20 10:15:21;;;;;;;4.20;2.25;;;24.50;50.70;;;;;;5118418;27;20071;-62
2023/07/20 10:17:58;;;;;;;3.50;2.05;;;24.50;50.30;;;;;;5117188;27;20047;-61
2023/07/20 10:20:27;;;;;;;4.45;1.95;;;24.80;49.80;;;;;;5118586;27;20055;-61
2023/07/20 10:22:56;;;;;;;5.97;3.80;;;25.00;49.40;;;;;;5120109;27;20055;-60
2023/07/20 10:25:24;;;;;;;5.82;3.42;;;25.20;49.10;;;;;;5118330;27;20043;-60
2023/07/20 10:27:51;;;;;;;5.93;3.40;;;25.30;49.00;;;;;;5117941;27;20035;-61
2023/07/20 10:30:19;;;;;;;4.15;2.40;;;25.30;48.30;;;;;;5117974;27;20042;-61
2023/07/20 10:32:47;;;;;;;4.32;2.25;;;25.40;48.20;;;;;;5117907;27;20054;-61
2023/07/20 10:35:16;;;;;;;3.15;2.03;;;25.30;48.00;;;;;;5120693;27;20047;-61
2023/07/20 10:37:48;;;;;;;3.65;1.70;;;25.50;47.80;;;;;;5119358;27;20414;-61
2023/07/20 10:40:30;;;;;;;3.95;1.50;;;25.60;47.80;;;;;;5117790;27;20035;-61
2023/07/20 10:43:08;;;;;;;3.28;1.55;;;25.60;47.20;;;;;;5118500;27;20096;-61
2023/07/20 10:45:42;;;;;;;3.40;1.75;;;25.50;47.00;;;;;;5119451;27;20517;-61
2023/07/20 10:48:16;;;;;;;3.30;1.48;;;25.60;46.90;;;;;;5118847;27;20092;-62
2023/07/20 10:50:44;;;;;;;3.55;1.42;;;25.40;46.70;;;;;;5118377;27;20048;-66
2023/07/20 10:53:12;;;;;;;2.38;1.48;;;25.20;46.40;;;;;;5118070;27;20051;-62
2023/07/20 10:55:39;;;;;;;2.50;1.27;;;25.10;46.50;;;;;;5116021;27;20047;-61
2023/07/20 10:58:14;;;;;;;4.13;1.73;;;24.90;46.40;;;;;;5113412;27;20036;-62
2023/07/20 11:00:59;;;;;;;3.75;1.65;;;24.70;47.00;;;;;;5090850;27;20073;-62
2023/07/20 11:03:31;;;;;;;3.63;1.50;;;24.60;47.50;;;;;;5117813;27;20047;-60
2023/07/20 11:05:59;;;;;;;3.13;1.80;;;24.40;47.70;;;;;;5117912;27;20053;-61
2023/07/20 11:08:42;;;;;;;4.47;1.60;;;24.60;47.50;;;;;;5119621;27;20059;-62
2023/07/20 11:11:26;;;;;;;3.13;1.80;;;24.90;46.20;;;;;;5115183;27;20176;-60
2023/07/20 11:13:57;;;;;;;2.08;1.50;;;25.00;46.10;;;;;;5116335;27;20058;-61
2023/07/20 11:16:38;;;;;;;2.85;1.52;;;25.10;45.80;;;;;;5117952;27;20053;-62
2023/07/20 11:19:07;;;;;;;2.80;1.83;;;25.00;46.40;;;;;;5113081;27;20050;-61
2023/07/20 11:21:39;;;;;;;4.00;2.03;;;25.10;45.80;;;;;;5116863;27;20133;-62
2023/07/20 11:24:07;;;;;;;4.78;1.75;;;25.30;45.90;;;;;;5117508;27;20507;-61
2023/07/20 11:26:44;;;;;;;3.53;1.77;;;25.60;45.30;;;;;;5115778;27;20544;-60
2023/07/20 11:29:11;;;;;;;2.75;1.75;;;25.70;44.50;;;;;;5118082;27;20051;-61
2023/07/20 11:31:39;;;;;;;3.15;1.70;;;25.90;44.40;;;;;;5116323;27;20042;-61
2023/07/20 11:34:06;;;;;;;2.78;1.52;;;25.90;43.60;;;;;;5116316;27;20042;-62
2023/07/20 11:36:34;;;;;;;3.42;1.40;;;26.00;43.80;;;;;;5116822;27;20052;-61
2023/07/20 11:39:04;;;;;;;3.58;1.58;;;26.10;44.00;;;;;;5115000;27;20039;-60
2023/07/20 11:41:32;;;;;;;3.17;1.70;;;26.10;43.80;;;;;;5117171;27;20094;-61
2023/07/20 11:43:59;;;;;;;3.10;1.55;;;26.00;43.40;;;;;;5117168;27;20528;-62
2023/07/20 11:46:26;;;;;;;3.83;1.88;;;25.90;43.60;;;;;;5114531;27;20603;-61
2023/07/20 11:48:57;;;;;;;3.40;1.50;;;25.70;43.30;;;;;;5117592;27;20047;-61
2023/07/20 11:51:25;;;;;;;3.42;1.60;;;25.80;43.50;;;;;;5096065;27;20063;-61
2023/07/20 11:53:52;;;;;;;3.67;1.92;;;26.00;43.20;;;;;;5115926;27;20055;-62
2023/07/20 11:56:21;;;;;;;4.40;1.70;;;26.10;43.40;;;;;;5112889;27;20043;-62
2023/07/20 11:58:48;;;;;;;3.13;1.87;;;26.10;43.20;;;;;;5099033;28;20134;-61
2023/07/20 12:01:15;;;;;;;3.28;1.58;;;26.20;42.60;;;;;;5116923;27;20054;-60
2023/07/20 12:03:43;;;;;;;4.50;1.60;;;26.30;42.60;;;;;;5117448;27;20389;-60
2023/07/20 12:06:12;;;;;;;3.30;1.80;;;26.40;42.60;;;;;;5116170;28;20055;-60
2023/07/20 12:08:40;;;;;;;3.67;1.70;;;26.30;42.30;;;;;;5112987;28;20452;-61
2023/07/20 12:11:08;;;;;;;2.97;1.52;;;26.10;42.10;;;;;;5117319;27;20055;-62
2023/07/20 12:13:42;;;;;;;3.53;1.90;;;25.90;42.40;;;;;;5119883;27;20438;-61
2023/07/20 12:16:15;;;;;;;3.30;1.75;;;25.80;42.20;;;;;;5118062;27;20052;-62
2023/07/20 12:18:42;;;;;;;3.60;1.65;;;26.00;40.90;;;;;;5120387;27;20044;-61
2023/07/20 12:21:11;;;;;;;3.03;1.52;;;26.20;41.50;;;;;;5120363;27;20543;-61
2023/07/20 12:23:39;;;;;;;6.50;1.87;;;26.40;41.50;;;;;;5121067;27;20047;-61
2023/07/20 12:26:10;;;;;;;5.60;1.95;;;26.50;41.80;;;;;;5114785;27;20046;-61
2023/07/20 12:28:46;;;;;;;2.80;1.45;;;26.60;41.50;;;;;;5113863;27;20051;-61
2023/07/20 12:31:13;;;;;;;3.00;1.80;;;26.70;40.60;;;;;;5117910;27;20044;-61
2023/07/20 12:33:40;;;;;;;2.10;1.30;;;26.60;40.70;;;;;;5120714;27;20448;-62
2023/07/20 12:36:07;;;;;;;3.08;1.77;;;26.70;40.80;;;;;;5120613;27;20047;-61
2023/07/20 12:38:34;;;;;;;2.97;1.63;;;26.70;40.70;;;;;;5116994;27;20194;-60
2023/07/20 12:41:02;;;;;;;3.05;1.73;;;26.70;39.90;;;;;;5121378;27;20129;-60
2023/07/20 12:43:29;;;;;;;2.92;1.60;;;26.50;40.00;;;;;;5120267;27;20039;-61
2023/07/20 12:45:59;;;;;;;3.22;1.52;;;26.30;39.50;;;;;;5121609;27;20124;-62
2023/07/20 12:48:26;;;;;;;2.88;1.42;;;26.30;39.80;;;;;;5119516;27;20097;-60
2023/07/20 12:50:53;;;;;;;3.40;1.20;;;26.40;40.10;;;;;;5117207;27;20043;-62
2023/07/20 12:53:20;;;;;;;1.63;1.02;;;26.50;40.10;;;;;;5116158;27;20482;-61
2023/07/20 12:55:46;;;;;;;3.25;1.30;;;26.60;38.80;;;;;;5114348;27;20048;-63